Terminal Aerodrome Forecast
Issued by NWS

Home | Current Version | Previous Version | Text Only | Print | Product List | Glossary On
Versions: 1 2 3 4 5 6 7 8 9 10 11 12 13 14 15 16 17 18 19 20 21 22 23 24 25 26 27
000
FTUS42 KCAE 180200 AAA
TAFDNL
TAF AMD
KDNL 180221Z 1802/1824 07007KT P6SM SCT050 BKN150
     FM180500 04005KT P6SM SCT025 BKN040 OVC150
     FM181100 04009KT P6SM BKN025 OVC120
     FM181400 04010G16KT P6SM BKN035 OVC060
     FM181800 06010G16KT P6SM VCSH BKN025 OVC040
     FM182100 04009KT 5SM -SHRA BR BKN020 OVC040=

USA.gov is the U.S. government's official web portal to all federal, state and local government web resources and services.